Benton City, MO

9:59 AM CDT on October 24, 2014 (GMT -0500)
Columbia Regional | Change Station
CLOSE
Current Station
Airport
Location: Columbia,
Elevation: 899 ft
Nearby Weather Stations
Active Advisory: Dense Fog Advisory

Elev 899 ft 38.82 °N, 92.22 °W | Updated 5 minutes ago

Fog
Fog
59 °F
Feels Like 59 °F
N
5
Wind Variable Wind from South

Today
High -- | Low -- °F
--% Chance of Precip.
Yesterday
High -- | Low -- °F
Precip. -- in
7:26 AM 6:15 PM
New Moon, 1% visible
Pressure 30.12 in
Visibility 3.0 miles
Clouds Overcast 600 ft
Dew Point 58 °F
Humidity 96%
Rainfall 0.00 in
Snow Depth Not available.
UV 1 out of 12
Pollen 2.50 out of 12
Air Quality Not available.
Flu Activity No Activity
METAR KCOU 241454Z 18004KT 3SM BR OVC006 15/14 A3012 RMK AO2 SLP197 T01500144 53007

More Conditions Fewer Conditions

Pressure 30.12 in
Visibility 3.0 miles
Clouds Overcast 600 ft
Dew Point 58 °F
Humidity 96%
Rainfall 0.00 in
Snow Depth Not available.
UV 1 out of 12
Pollen 2.50 out of 12
Air Quality Not available.
Flu Activity No Activity
METAR KCOU 241454Z 18004KT 3SM BR OVC006 15/14 A3012 RMK AO2 SLP197 T01500144 53007

More Conditions Fewer Conditions

10-Day Weather Forecast

Almanac

Astronomy

Oct. 24, 2014 Rise Set
Actual Time 7:26 AM CDT 6:15 PM CDT
Civil Twilight 6:58 AM CDT 6:43 PM CDT
Nautical Twilight 6:27 AM CDT 7:14 PM CDT
Astronomical Twilight 5:56 AM CDT 7:45 PM CDT
Moon 8:05 AM CDT 6:56 PM CDT
Length of Visible Light 11h 44m
Length of Day
10h 49m
Tomorrow will be 2m 22s shorter.
New Moon, 1% of the Moon is Illuminated
Today
New Moon
Oct 30
First Quarter
Nov 6
Full
Nov 14
Last Quarter
Nov 22
New

Today's Extremes

State Highs State Lows

Community

WunderPhotos

Upload Photos

1,764,581 photos uploaded!

Nearby

Snow Depth

Station Depth Elevation
No new snow has been reported.

Earthquake Activity

City Distance Mag. Time & Date
No recent earthquake activity has been reported nearby.
Minimum magnitude displayed is 2.5.

Coastal Water Temperatures

Place Temperature
No Stations Reporting

Nearby Weather Stations